sensor_id;sensor_type;location;lat;lon;timestamp;P1;durP1;ratioP1;P2;durP2;ratioP2
19004;SDS011;9635;52.078;8.648;2022-11-20T00:03:57;37.95;;;20.15;;
19004;SDS011;9635;52.078;8.648;2022-11-20T00:09:02;30.63;;;18.00;;
19004;SDS011;9635;52.078;8.648;2022-11-20T00:14:06;34.40;;;19.63;;
19004;SDS011;9635;52.078;8.648;2022-11-20T00:19:09;31.13;;;19.08;;
19004;SDS011;9635;52.078;8.648;2022-11-20T00:24:13;39.00;;;20.65;;
19004;SDS011;9635;52.078;8.648;2022-11-20T00:29:16;41.42;;;21.27;;
19004;SDS011;9635;52.078;8.648;2022-11-20T00:34:19;35.08;;;19.77;;
19004;SDS011;9635;52.078;8.648;2022-11-20T00:39:24;37.35;;;20.05;;
19004;SDS011;9635;52.078;8.648;2022-11-20T00:44:26;32.63;;;19.05;;
19004;SDS011;9635;52.078;8.648;2022-11-20T00:49:30;30.60;;;18.35;;
19004;SDS011;9635;52.078;8.648;2022-11-20T00:54:34;35.80;;;17.95;;
19004;SDS011;9635;52.078;8.648;2022-11-20T00:59:37;28.13;;;16.40;;
19004;SDS011;9635;52.078;8.648;2022-11-20T01:04:40;27.75;;;16.20;;
19004;SDS011;9635;52.078;8.648;2022-11-20T01:09:44;31.15;;;17.52;;
19004;SDS011;9635;52.078;8.648;2022-11-20T01:14:47;36.03;;;18.35;;
19004;SDS011;9635;52.078;8.648;2022-11-20T01:19:50;33.97;;;18.50;;
19004;SDS011;9635;52.078;8.648;2022-11-20T01:24:54;34.90;;;19.63;;
19004;SDS011;9635;52.078;8.648;2022-11-20T01:29:56;29.15;;;16.75;;
19004;SDS011;9635;52.078;8.648;2022-11-20T01:35:01;32.20;;;18.17;;
19004;SDS011;9635;52.078;8.648;2022-11-20T01:40:06;34.05;;;18.08;;
19004;SDS011;9635;52.078;8.648;2022-11-20T01:50:55;32.63;;;18.05;;
19004;SDS011;9635;52.078;8.648;2022-11-20T01:56:01;35.22;;;18.13;;
19004;SDS011;9635;52.078;8.648;2022-11-20T02:01:08;32.38;;;18.13;;
19004;SDS011;9635;52.078;8.648;2022-11-20T02:06:12;32.88;;;19.05;;
19004;SDS011;9635;52.078;8.648;2022-11-20T02:11:21;32.72;;;17.65;;
19004;SDS011;9635;52.078;8.648;2022-11-20T02:16:24;31.95;;;16.75;;
19004;SDS011;9635;52.078;8.648;2022-11-20T02:21:32;29.65;;;16.85;;
19004;SDS011;9635;52.078;8.648;2022-11-20T02:26:42;34.22;;;18.40;;
19004;SDS011;9635;52.078;8.648;2022-11-20T02:31:49;35.25;;;19.10;;
19004;SDS011;9635;52.078;8.648;2022-11-20T02:36:53;35.60;;;19.02;;
19004;SDS011;9635;52.078;8.648;2022-11-20T02:41:57;32.40;;;17.65;;
19004;SDS011;9635;52.078;8.648;2022-11-20T02:47:00;33.92;;;17.95;;
19004;SDS011;9635;52.078;8.648;2022-11-20T02:52:02;30.48;;;18.38;;
19004;SDS011;9635;52.078;8.648;2022-11-20T02:57:07;32.90;;;18.15;;
19004;SDS011;9635;52.078;8.648;2022-11-20T03:02:10;30.10;;;17.35;;
19004;SDS011;9635;52.078;8.648;2022-11-20T03:07:13;32.70;;;17.75;;
19004;SDS011;9635;52.078;8.648;2022-11-20T03:12:17;37.60;;;19.25;;
19004;SDS011;9635;52.078;8.648;2022-11-20T03:17:20;31.30;;;18.00;;
19004;SDS011;9635;52.078;8.648;2022-11-20T03:22:22;33.40;;;17.95;;
19004;SDS011;9635;52.078;8.648;2022-11-20T03:27:26;30.58;;;17.52;;
19004;SDS011;9635;52.078;8.648;2022-11-20T03:32:29;34.40;;;18.30;;
19004;SDS011;9635;52.078;8.648;2022-11-20T03:37:32;32.05;;;16.50;;
19004;SDS011;9635;52.078;8.648;2022-11-20T03:42:36;31.83;;;16.35;;
19004;SDS011;9635;52.078;8.648;2022-11-20T03:47:48;32.95;;;17.50;;
19004;SDS011;9635;52.078;8.648;2022-11-20T03:52:51;32.80;;;16.13;;
19004;SDS011;9635;52.078;8.648;2022-11-20T03:57:55;25.50;;;15.00;;
19004;SDS011;9635;52.078;8.648;2022-11-20T04:02:58;28.02;;;16.02;;
19004;SDS011;9635;52.078;8.648;2022-11-20T04:08:01;27.73;;;16.10;;
19004;SDS011;9635;52.078;8.648;2022-11-20T04:13:05;28.98;;;15.57;;
19004;SDS011;9635;52.078;8.648;2022-11-20T04:18:08;28.25;;;14.35;;
19004;SDS011;9635;52.078;8.648;2022-11-20T04:23:11;25.08;;;13.63;;
19004;SDS011;9635;52.078;8.648;2022-11-20T04:28:15;30.75;;;15.95;;
19004;SDS011;9635;52.078;8.648;2022-11-20T04:33:17;27.73;;;14.80;;
19004;SDS011;9635;52.078;8.648;2022-11-20T04:38:20;24.05;;;13.88;;
19004;SDS011;9635;52.078;8.648;2022-11-20T04:43:24;28.25;;;14.70;;
19004;SDS011;9635;52.078;8.648;2022-11-20T04:48:27;27.95;;;15.05;;
19004;SDS011;9635;52.078;8.648;2022-11-20T04:53:31;27.23;;;14.30;;
19004;SDS011;9635;52.078;8.648;2022-11-20T04:58:36;23.25;;;13.30;;
19004;SDS011;9635;52.078;8.648;2022-11-20T05:03:39;27.23;;;15.45;;
19004;SDS011;9635;52.078;8.648;2022-11-20T05:08:43;30.92;;;15.38;;
19004;SDS011;9635;52.078;8.648;2022-11-20T05:13:47;27.30;;;14.45;;
19004;SDS011;9635;52.078;8.648;2022-11-20T05:18:51;31.45;;;14.68;;
19004;SDS011;9635;52.078;8.648;2022-11-20T05:23:55;27.65;;;14.48;;
19004;SDS011;9635;52.078;8.648;2022-11-20T05:28:59;25.90;;;13.80;;
19004;SDS011;9635;52.078;8.648;2022-11-20T05:34:02;26.02;;;13.40;;
19004;SDS011;9635;52.078;8.648;2022-11-20T05:39:05;26.60;;;14.40;;
19004;SDS011;9635;52.078;8.648;2022-11-20T05:44:11;26.15;;;14.55;;
19004;SDS011;9635;52.078;8.648;2022-11-20T05:49:14;27.33;;;14.73;;
19004;SDS011;9635;52.078;8.648;2022-11-20T05:54:17;29.05;;;14.85;;
19004;SDS011;9635;52.078;8.648;2022-11-20T05:59:21;26.88;;;14.50;;
19004;SDS011;9635;52.078;8.648;2022-11-20T06:04:24;27.13;;;14.50;;
19004;SDS011;9635;52.078;8.648;2022-11-20T06:09:27;30.88;;;14.00;;
19004;SDS011;9635;52.078;8.648;2022-11-20T06:14:31;24.70;;;13.73;;
19004;SDS011;9635;52.078;8.648;2022-11-20T06:19:34;25.23;;;14.20;;
19004;SDS011;9635;52.078;8.648;2022-11-20T06:24:37;28.25;;;14.65;;
19004;SDS011;9635;52.078;8.648;2022-11-20T06:29:41;26.25;;;14.05;;
19004;SDS011;9635;52.078;8.648;2022-11-20T06:34:44;29.20;;;14.15;;
19004;SDS011;9635;52.078;8.648;2022-11-20T06:39:46;27.23;;;14.90;;
19004;SDS011;9635;52.078;8.648;2022-11-20T06:44:50;24.90;;;13.60;;
19004;SDS011;9635;52.078;8.648;2022-11-20T06:49:53;27.65;;;15.48;;
19004;SDS011;9635;52.078;8.648;2022-11-20T06:54:56;33.67;;;15.82;;
19004;SDS011;9635;52.078;8.648;2022-11-20T07:00:00;30.40;;;14.93;;
19004;SDS011;9635;52.078;8.648;2022-11-20T07:05:03;33.67;;;15.02;;
19004;SDS011;9635;52.078;8.648;2022-11-20T07:10:06;13.73;;;7.40;;
19004;SDS011;9635;52.078;8.648;2022-11-20T07:15:11;70.13;;;34.63;;
19004;SDS011;9635;52.078;8.648;2022-11-20T07:20:14;17.02;;;13.48;;
19004;SDS011;9635;52.078;8.648;2022-11-20T07:25:17;17.95;;;12.35;;
19004;SDS011;9635;52.078;8.648;2022-11-20T07:30:21;19.27;;;12.93;;
19004;SDS011;9635;52.078;8.648;2022-11-20T07:35:24;23.17;;;13.45;;
19004;SDS011;9635;52.078;8.648;2022-11-20T07:40:27;27.02;;;14.65;;
19004;SDS011;9635;52.078;8.648;2022-11-20T07:45:31;23.95;;;13.75;;
19004;SDS011;9635;52.078;8.648;2022-11-20T07:50:34;22.58;;;13.63;;
19004;SDS011;9635;52.078;8.648;2022-11-20T07:55:37;24.70;;;13.65;;
19004;SDS011;9635;52.078;8.648;2022-11-20T08:00:41;26.85;;;13.85;;
19004;SDS011;9635;52.078;8.648;2022-11-20T08:05:44;33.25;;;16.17;;
19004;SDS011;9635;52.078;8.648;2022-11-20T08:10:47;33.55;;;15.85;;
19004;SDS011;9635;52.078;8.648;2022-11-20T08:15:51;33.58;;;13.77;;
19004;SDS011;9635;52.078;8.648;2022-11-20T08:20:54;41.88;;;17.50;;
19004;SDS011;9635;52.078;8.648;2022-11-20T08:25:56;39.78;;;18.35;;
19004;SDS011;9635;52.078;8.648;2022-11-20T08:31:01;39.80;;;17.63;;
19004;SDS011;9635;52.078;8.648;2022-11-20T08:36:05;47.47;;;20.67;;
19004;SDS011;9635;52.078;8.648;2022-11-20T08:41:08;53.28;;;24.33;;
19004;SDS011;9635;52.078;8.648;2022-11-20T08:46:31;57.92;;;24.25;;
19004;SDS011;9635;52.078;8.648;2022-11-20T08:51:35;62.60;;;25.83;;
19004;SDS011;9635;52.078;8.648;2022-11-20T08:56:38;42.40;;;19.88;;
19004;SDS011;9635;52.078;8.648;2022-11-20T09:01:42;35.58;;;17.80;;
19004;SDS011;9635;52.078;8.648;2022-11-20T09:06:45;33.28;;;19.42;;
19004;SDS011;9635;52.078;8.648;2022-11-20T09:11:52;36.55;;;18.00;;
19004;SDS011;9635;52.078;8.648;2022-11-20T09:16:56;40.38;;;19.95;;
19004;SDS011;9635;52.078;8.648;2022-11-20T09:21:59;38.30;;;18.65;;
19004;SDS011;9635;52.078;8.648;2022-11-20T09:27:03;30.60;;;16.45;;
19004;SDS011;9635;52.078;8.648;2022-11-20T09:32:07;29.40;;;16.58;;
19004;SDS011;9635;52.078;8.648;2022-11-20T09:37:10;28.60;;;15.10;;
19004;SDS011;9635;52.078;8.648;2022-11-20T09:42:22;27.38;;;14.10;;
19004;SDS011;9635;52.078;8.648;2022-11-20T09:47:39;23.93;;;12.30;;
19004;SDS011;9635;52.078;8.648;2022-11-20T09:52:56;24.23;;;12.00;;
19004;SDS011;9635;52.078;8.648;2022-11-20T09:58:12;17.05;;;8.50;;
19004;SDS011;9635;52.078;8.648;2022-11-20T10:03:24;18.65;;;9.35;;
19004;SDS011;9635;52.078;8.648;2022-11-20T10:08:36;18.00;;;9.85;;
19004;SDS011;9635;52.078;8.648;2022-11-20T10:13:48;14.23;;;9.48;;
19004;SDS011;9635;52.078;8.648;2022-11-20T10:19:06;19.05;;;10.18;;
19004;SDS011;9635;52.078;8.648;2022-11-20T10:24:28;16.77;;;9.80;;
19004;SDS011;9635;52.078;8.648;2022-11-20T10:29:52;15.57;;;9.80;;
19004;SDS011;9635;52.078;8.648;2022-11-20T10:35:06;11.55;;;8.75;;
19004;SDS011;9635;52.078;8.648;2022-11-20T10:40:20;15.00;;;9.32;;
19004;SDS011;9635;52.078;8.648;2022-11-20T10:45:32;13.48;;;9.07;;
19004;SDS011;9635;52.078;8.648;2022-11-20T10:50:49;16.17;;;9.80;;
19004;SDS011;9635;52.078;8.648;2022-11-20T10:56:00;13.18;;;8.95;;
19004;SDS011;9635;52.078;8.648;2022-11-20T11:01:13;14.60;;;9.30;;
19004;SDS011;9635;52.078;8.648;2022-11-20T11:06:21;15.73;;;9.93;;
19004;SDS011;9635;52.078;8.648;2022-11-20T11:11:32;12.43;;;9.05;;
19004;SDS011;9635;52.078;8.648;2022-11-20T11:16:40;12.57;;;9.63;;
19004;SDS011;9635;52.078;8.648;2022-11-20T11:21:53;11.55;;;8.95;;
19004;SDS011;9635;52.078;8.648;2022-11-20T11:26:58;13.68;;;10.65;;
19004;SDS011;9635;52.078;8.648;2022-11-20T11:32:06;13.93;;;10.00;;
19004;SDS011;9635;52.078;8.648;2022-11-20T11:37:12;13.90;;;8.63;;
19004;SDS011;9635;52.078;8.648;2022-11-20T11:42:19;8.75;;;6.63;;
19004;SDS011;9635;52.078;8.648;2022-11-20T11:47:23;7.68;;;5.72;;
19004;SDS011;9635;52.078;8.648;2022-11-20T11:52:28;9.68;;;6.65;;
19004;SDS011;9635;52.078;8.648;2022-11-20T11:57:40;8.18;;;6.30;;
19004;SDS011;9635;52.078;8.648;2022-11-20T12:02:53;7.93;;;6.30;;
19004;SDS011;9635;52.078;8.648;2022-11-20T12:08:05;7.88;;;5.97;;
19004;SDS011;9635;52.078;8.648;2022-11-20T12:13:20;6.50;;;5.45;;
19004;SDS011;9635;52.078;8.648;2022-11-20T12:18:31;6.43;;;5.00;;
19004;SDS011;9635;52.078;8.648;2022-11-20T12:23:40;6.72;;;5.43;;
19004;SDS011;9635;52.078;8.648;2022-11-20T12:28:53;7.03;;;4.88;;
19004;SDS011;9635;52.078;8.648;2022-11-20T12:44:47;7.78;;;4.63;;
19004;SDS011;9635;52.078;8.648;2022-11-20T12:50:14;8.63;;;6.00;;
19004;SDS011;9635;52.078;8.648;2022-11-20T13:00:52;8.45;;;4.97;;
19004;SDS011;9635;52.078;8.648;2022-11-20T13:06:00;8.25;;;6.00;;
19004;SDS011;9635;52.078;8.648;2022-11-20T13:11:16;7.80;;;5.38;;
19004;SDS011;9635;52.078;8.648;2022-11-20T13:16:24;7.68;;;5.35;;
19004;SDS011;9635;52.078;8.648;2022-11-20T13:21:35;8.10;;;5.82;;
19004;SDS011;9635;52.078;8.648;2022-11-20T13:26:41;11.18;;;6.55;;
19004;SDS011;9635;52.078;8.648;2022-11-20T13:31:45;8.40;;;5.50;;
19004;SDS011;9635;52.078;8.648;2022-11-20T13:36:50;7.82;;;5.25;;
19004;SDS011;9635;52.078;8.648;2022-11-20T13:41:56;9.10;;;5.72;;
19004;SDS011;9635;52.078;8.648;2022-11-20T13:47:00;8.32;;;4.95;;
19004;SDS011;9635;52.078;8.648;2022-11-20T13:52:20;10.35;;;6.22;;
19004;SDS011;9635;52.078;8.648;2022-11-20T13:57:44;9.95;;;6.47;;
19004;SDS011;9635;52.078;8.648;2022-11-20T14:03:06;9.83;;;6.70;;
19004;SDS011;9635;52.078;8.648;2022-11-20T14:08:14;12.85;;;7.68;;
19004;SDS011;9635;52.078;8.648;2022-11-20T14:13:27;12.70;;;8.18;;
19004;SDS011;9635;52.078;8.648;2022-11-20T14:18:30;12.27;;;7.28;;
19004;SDS011;9635;52.078;8.648;2022-11-20T14:23:32;16.35;;;8.02;;
19004;SDS011;9635;52.078;8.648;2022-11-20T14:28:37;15.57;;;9.43;;
19004;SDS011;9635;52.078;8.648;2022-11-20T14:33:39;17.15;;;9.93;;
19004;SDS011;9635;52.078;8.648;2022-11-20T14:38:42;17.52;;;11.02;;
19004;SDS011;9635;52.078;8.648;2022-11-20T14:43:48;17.92;;;10.10;;
19004;SDS011;9635;52.078;8.648;2022-11-20T14:48:55;16.85;;;10.68;;
19004;SDS011;9635;52.078;8.648;2022-11-20T14:54:10;20.70;;;11.45;;
19004;SDS011;9635;52.078;8.648;2022-11-20T14:59:22;22.70;;;12.52;;
19004;SDS011;9635;52.078;8.648;2022-11-20T15:04:25;21.03;;;11.20;;
19004;SDS011;9635;52.078;8.648;2022-11-20T15:09:28;24.35;;;13.88;;
19004;SDS011;9635;52.078;8.648;2022-11-20T15:14:32;27.90;;;15.57;;
19004;SDS011;9635;52.078;8.648;2022-11-20T15:19:35;23.30;;;14.25;;
19004;SDS011;9635;52.078;8.648;2022-11-20T15:24:38;33.38;;;16.33;;
19004;SDS011;9635;52.078;8.648;2022-11-20T15:29:42;27.38;;;15.07;;
19004;SDS011;9635;52.078;8.648;2022-11-20T15:34:45;25.65;;;15.00;;
19004;SDS011;9635;52.078;8.648;2022-11-20T15:39:48;26.17;;;15.18;;
19004;SDS011;9635;52.078;8.648;2022-11-20T15:44:52;43.30;;;22.10;;
19004;SDS011;9635;52.078;8.648;2022-11-20T15:49:55;50.35;;;27.00;;
19004;SDS011;9635;52.078;8.648;2022-11-20T15:54:58;34.13;;;19.23;;
19004;SDS011;9635;52.078;8.648;2022-11-20T16:00:07;30.65;;;17.50;;
19004;SDS011;9635;52.078;8.648;2022-11-20T16:05:12;30.73;;;17.52;;
19004;SDS011;9635;52.078;8.648;2022-11-20T16:10:17;30.52;;;17.67;;
19004;SDS011;9635;52.078;8.648;2022-11-20T16:15:22;36.55;;;18.83;;
19004;SDS011;9635;52.078;8.648;2022-11-20T16:20:42;64.50;;;31.97;;
19004;SDS011;9635;52.078;8.648;2022-11-20T16:25:45;43.50;;;22.98;;
19004;SDS011;9635;52.078;8.648;2022-11-20T16:30:50;37.97;;;19.80;;
19004;SDS011;9635;52.078;8.648;2022-11-20T16:35:53;36.13;;;19.38;;
19004;SDS011;9635;52.078;8.648;2022-11-20T16:40:59;31.05;;;17.55;;
19004;SDS011;9635;52.078;8.648;2022-11-20T16:46:04;33.08;;;17.70;;
19004;SDS011;9635;52.078;8.648;2022-11-20T16:51:07;30.50;;;17.58;;
19004;SDS011;9635;52.078;8.648;2022-11-20T16:56:12;29.40;;;15.75;;
19004;SDS011;9635;52.078;8.648;2022-11-20T17:01:19;29.60;;;16.58;;
19004;SDS011;9635;52.078;8.648;2022-11-20T17:06:24;32.80;;;18.02;;
19004;SDS011;9635;52.078;8.648;2022-11-20T17:11:28;30.52;;;17.20;;
19004;SDS011;9635;52.078;8.648;2022-11-20T17:16:32;35.30;;;17.40;;
19004;SDS011;9635;52.078;8.648;2022-11-20T17:21:36;40.72;;;22.35;;
19004;SDS011;9635;52.078;8.648;2022-11-20T17:26:40;25.30;;;15.88;;
19004;SDS011;9635;52.078;8.648;2022-11-20T17:31:45;27.67;;;16.33;;
19004;SDS011;9635;52.078;8.648;2022-11-20T17:36:48;29.77;;;15.20;;
19004;SDS011;9635;52.078;8.648;2022-11-20T17:41:52;35.10;;;19.52;;
19004;SDS011;9635;52.078;8.648;2022-11-20T17:47:10;43.10;;;23.08;;
19004;SDS011;9635;52.078;8.648;2022-11-20T17:52:12;37.47;;;20.08;;
19004;SDS011;9635;52.078;8.648;2022-11-20T17:57:15;29.92;;;14.63;;
19004;SDS011;9635;52.078;8.648;2022-11-20T18:02:37;34.70;;;17.58;;
19004;SDS011;9635;52.078;8.648;2022-11-20T18:07:40;24.45;;;13.57;;
19004;SDS011;9635;52.078;8.648;2022-11-20T18:12:43;28.05;;;14.35;;
19004;SDS011;9635;52.078;8.648;2022-11-20T18:17:47;24.00;;;15.27;;
19004;SDS011;9635;52.078;8.648;2022-11-20T18:22:50;24.38;;;13.02;;
19004;SDS011;9635;52.078;8.648;2022-11-20T18:27:52;31.40;;;16.33;;
19004;SDS011;9635;52.078;8.648;2022-11-20T18:32:58;23.15;;;12.60;;
19004;SDS011;9635;52.078;8.648;2022-11-20T18:38:01;23.50;;;12.68;;
19004;SDS011;9635;52.078;8.648;2022-11-20T18:43:04;40.53;;;18.42;;
19004;SDS011;9635;52.078;8.648;2022-11-20T18:48:26;66.07;;;24.63;;
19004;SDS011;9635;52.078;8.648;2022-11-20T18:53:28;40.15;;;17.88;;
19004;SDS011;9635;52.078;8.648;2022-11-20T18:58:31;32.72;;;17.60;;
19004;SDS011;9635;52.078;8.648;2022-11-20T19:03:35;28.58;;;14.70;;
19004;SDS011;9635;52.078;8.648;2022-11-20T19:08:38;28.70;;;14.73;;
19004;SDS011;9635;52.078;8.648;2022-11-20T19:13:41;35.70;;;17.55;;
19004;SDS011;9635;52.078;8.648;2022-11-20T19:18:45;39.72;;;19.73;;
19004;SDS011;9635;52.078;8.648;2022-11-20T19:23:49;31.50;;;16.45;;
19004;SDS011;9635;52.078;8.648;2022-11-20T19:28:52;29.08;;;16.38;;
19004;SDS011;9635;52.078;8.648;2022-11-20T19:33:57;34.25;;;16.90;;
19004;SDS011;9635;52.078;8.648;2022-11-20T19:39:02;32.38;;;17.13;;
19004;SDS011;9635;52.078;8.648;2022-11-20T19:44:07;39.42;;;17.88;;
19004;SDS011;9635;52.078;8.648;2022-11-20T19:49:13;36.88;;;17.60;;
19004;SDS011;9635;52.078;8.648;2022-11-20T19:54:16;69.50;;;28.50;;
19004;SDS011;9635;52.078;8.648;2022-11-20T19:59:19;42.30;;;21.90;;
19004;SDS011;9635;52.078;8.648;2022-11-20T20:04:24;39.42;;;19.13;;
19004;SDS011;9635;52.078;8.648;2022-11-20T20:09:27;45.83;;;21.00;;
19004;SDS011;9635;52.078;8.648;2022-11-20T20:14:30;40.63;;;20.77;;
19004;SDS011;9635;52.078;8.648;2022-11-20T20:19:36;42.67;;;21.58;;
19004;SDS011;9635;52.078;8.648;2022-11-20T20:24:39;36.22;;;19.17;;
19004;SDS011;9635;52.078;8.648;2022-11-20T20:29:41;43.85;;;20.98;;
19004;SDS011;9635;52.078;8.648;2022-11-20T20:34:46;47.50;;;21.92;;
19004;SDS011;9635;52.078;8.648;2022-11-20T20:39:48;47.15;;;21.52;;
19004;SDS011;9635;52.078;8.648;2022-11-20T20:44:51;48.35;;;23.90;;
19004;SDS011;9635;52.078;8.648;2022-11-20T20:50:12;51.65;;;26.10;;
19004;SDS011;9635;52.078;8.648;2022-11-20T20:55:15;49.70;;;23.83;;
19004;SDS011;9635;52.078;8.648;2022-11-20T21:00:18;43.65;;;22.77;;
19004;SDS011;9635;52.078;8.648;2022-11-20T21:05:22;49.10;;;24.63;;
19004;SDS011;9635;52.078;8.648;2022-11-20T21:10:25;53.08;;;22.50;;
19004;SDS011;9635;52.078;8.648;2022-11-20T21:15:28;44.45;;;20.80;;
19004;SDS011;9635;52.078;8.648;2022-11-20T21:20:32;45.25;;;20.58;;
19004;SDS011;9635;52.078;8.648;2022-11-20T21:25:52;46.33;;;22.08;;
19004;SDS011;9635;52.078;8.648;2022-11-20T21:31:01;41.28;;;21.00;;
19004;SDS011;9635;52.078;8.648;2022-11-20T21:36:06;46.33;;;24.02;;
19004;SDS011;9635;52.078;8.648;2022-11-20T21:41:11;48.92;;;22.60;;
19004;SDS011;9635;52.078;8.648;2022-11-20T21:46:15;55.33;;;24.40;;
19004;SDS011;9635;52.078;8.648;2022-11-20T21:51:20;49.15;;;22.77;;
19004;SDS011;9635;52.078;8.648;2022-11-20T21:56:24;42.58;;;20.48;;
19004;SDS011;9635;52.078;8.648;2022-11-20T22:01:28;41.10;;;21.50;;
19004;SDS011;9635;52.078;8.648;2022-11-20T22:06:33;49.83;;;20.25;;
19004;SDS011;9635;52.078;8.648;2022-11-20T22:11:36;42.40;;;20.95;;
19004;SDS011;9635;52.078;8.648;2022-11-20T22:16:38;47.10;;;21.55;;
19004;SDS011;9635;52.078;8.648;2022-11-20T22:21:43;49.08;;;22.60;;
19004;SDS011;9635;52.078;8.648;2022-11-20T22:26:46;43.63;;;21.02;;
19004;SDS011;9635;52.078;8.648;2022-11-20T22:31:50;41.70;;;21.67;;
19004;SDS011;9635;52.078;8.648;2022-11-20T22:36:54;44.08;;;22.25;;
19004;SDS011;9635;52.078;8.648;2022-11-20T22:41:57;49.10;;;23.60;;
19004;SDS011;9635;52.078;8.648;2022-11-20T22:47:00;47.95;;;23.42;;
19004;SDS011;9635;52.078;8.648;2022-11-20T22:52:10;48.95;;;23.65;;
19004;SDS011;9635;52.078;8.648;2022-11-20T22:57:13;44.30;;;20.70;;
19004;SDS011;9635;52.078;8.648;2022-11-20T23:02:15;39.95;;;19.67;;
19004;SDS011;9635;52.078;8.648;2022-11-20T23:07:20;39.17;;;20.17;;
19004;SDS011;9635;52.078;8.648;2022-11-20T23:12:22;36.78;;;20.38;;
19004;SDS011;9635;52.078;8.648;2022-11-20T23:17:25;41.90;;;21.60;;
19004;SDS011;9635;52.078;8.648;2022-11-20T23:22:31;40.78;;;19.00;;
19004;SDS011;9635;52.078;8.648;2022-11-20T23:27:34;44.65;;;21.27;;
19004;SDS011;9635;52.078;8.648;2022-11-20T23:32:37;42.72;;;21.02;;
19004;SDS011;9635;52.078;8.648;2022-11-20T23:37:41;39.53;;;20.25;;
19004;SDS011;9635;52.078;8.648;2022-11-20T23:42:43;41.08;;;20.63;;
19004;SDS011;9635;52.078;8.648;2022-11-20T23:48:00;43.60;;;21.27;;
19004;SDS011;9635;52.078;8.648;2022-11-20T23:53:04;36.85;;;18.50;;
19004;SDS011;9635;52.078;8.648;2022-11-20T23:58:07;34.03;;;16.83;;
